This is the latest recevied weather packets stored in our database for station/object OH2NJR. If no packets are shown the sender has not sent any weather packets the latest 10 day(s).
| Time | Temp. | Humidity | Pressure | Rain* | Wind** | Luminosity | Snow |
|---|---|---|---|---|---|---|---|
| 1777755233 | 7.22° C | 78% | 1008.7 hPa | 0 mm | - | - | - |
| 1777754100 | 7.22° C | 78% | 1008.7 hPa | 0 mm | - | - | - |
| 1777754093 | 7.22° C | 78% | 1008.7 hPa | 0 mm | - | - | - |
| 1777753058 | 7.78° C | 77% | 1008.8 hPa | 0 mm | - | - | - |
| 1777751966 | 7.78° C | 76% | 1008.8 hPa | 0 mm | - | - | - |
| 1777750903 | 8.33° C | 75% | 1008.8 hPa | 0 mm | - | - | - |
| 1777750900 | 8.33° C | 75% | 1008.8 hPa | 0 mm | - | - | - |
| 1777749718 | 9.44° C | 71% | 1008.8 hPa | 0 mm | - | - | - |
| 1777748638 | 10° C | 68% | 1008.9 hPa | 0 mm | - | - | - |
| 1777747593 | 10.56° C | 66% | 1008.8 hPa | 0 mm | - | - | - |
| 1777746480 | 11.11° C | 66% | 1008.7 hPa | 0 mm | - | - | - |
| 1777745468 | 11.67° C | 63% | 1008.7 hPa | 0 mm | - | - | - |
| 1777744407 | 12.78° C | 60% | 1008.7 hPa | 0 mm | - | - | - |
| 1777744393 | 12.78° C | 60% | 1008.7 hPa | 0 mm | - | - | - |
| 1777743281 | 12.78° C | - | - | 0 mm | - | - | - |
| 1777743278 | 12.78° C | 59% | 1008.7 hPa | 0 mm | - | - | - |
| 1777742263 | 12.78° C | 57% | 1008.6 hPa | 0 mm | - | - | - |
| 1777741103 | 12.78° C | 58% | 1008.8 hPa | 0 mm | - | - | - |
| 1777740082 | 13.33° C | 52% | 1008.9 hPa | 0 mm | - | - | - |
| 1777738928 | 13.33° C | 53% | 1009 hPa | 0 mm | - | - | - |
| 1777737904 | 13.33° C | 53% | 1009.1 hPa | 0 mm | - | - | - |
| 1777736948 | 13.89° C | 52% | 1009.1 hPa | 0 mm | - | - | - |
| 1777735908 | 13.33° C | 55% | 1009.1 hPa | 0 mm | - | - | - |
| 1777734713 | 13.33° C | 56% | 1009.1 hPa | 0 mm | - | - | - |
| 1777733628 | 12.78° C | 55% | 1009.2 hPa | 0 mm | - | - | - |
* Rain latest hour (hover to see other rain measurements)
** Current wind speed in m/s (hover to see current wind gust speed)